• Join FlightAware (Why Join?)
  • Login
  • US Flag 
07:49AM EDT


 

Airport Tracker/Info


-or-


 

Live Flight TrackerFlight Track Log ✈ SWA862 ✈ 09-Apr-2013 ✈ KBWI - KMHT

Flight Track Log - Related Links

Times and Time Zones

All times are in EDT time to prevent confusion due to time zone crossing. See the SWA862 flight status page for this flight to view local times or setup timezone preferences in your user account.

Time Position Orientation Groundspeed Altitude Reporting Facility
EDT Latitude Longitude Course Direction KTS MPH feet Rate Location/Type
10:10PM 39.1500 -76.6500 131° Southeast 153 176 1,200  Level Potomac TRACON
10:11PM 39.1167 -76.6000 131° Southeast 231 266 2,900 2,040 Climbing Potomac TRACON
10:12PM 39.0667 -76.5333 134° Southeast 277 319 5,300 2,760 Climbing Potomac TRACON
10:13PM 39.1000 -76.4333 67° East 313 360 8,500 3,300 Climbing Potomac TRACON
10:14PM 39.1428 -76.2686 71° East 335 386 13,600 2,640 Climbing Washington Center
10:15PM 39.1581 -76.1456 81° East 335 386 15,200 2,460 Climbing Washington Center
10:16PM 39.1419 -76.0253 100° East 342 394 18,600 1,860 Climbing Washington Center
10:17PM 39.1733 -75.9128 70° East 322 371 19,000 540 Climbing Washington Center
10:18PM 39.2403 -75.8219 46° Northeast 312 359 19,700 900 Climbing Washington Center
10:19PM 39.3156 -75.7283 44° Northeast 361 415 20,800 1,620 Climbing Washington Center
10:20PM 39.4072 -75.6400 37° Northeast 382 440 23,000 1,080 Climbing Washington Center
10:21PM 39.5094 -75.5567 32° Northeast 406 467 23,000 900 Level Washington Center
10:23PM 39.6939 -75.4356 27° Northeast 426 490 25,700 1,920 Climbing New York Center
10:24PM 39.7964 -75.3775 24° Northeast 408 470 28,700 1,680 Climbing New York Center
10:25PM 39.9047 -75.3253 20° North 403 464 29,200 1,200 Climbing New York Center
10:26PM 40.0217 -75.2650 22° Northeast 419 482 31,100 1,860 Climbing New York Center
10:27PM 40.1367 -75.2019 23° Northeast 432 497 33,000 1,800 Climbing New York Center
10:28PM 40.2514 -75.1439 21° North 438 504 34,800 960 Climbing New York Center
10:29PM 40.3661 -75.0831 22° Northeast 438 504 35,000 60 Climbing New York Center
10:30PM 40.4786 -75.0247 22° Northeast 438 504 35,000  Level New York Center
10:31PM 40.5933 -74.9661 21° North 438 504 35,000  Level New York Center
10:32PM 40.7078 -74.9075 21° North 438 504 35,000  Level New York Center
10:35PM 40.9781 -74.7633 22° Northeast 436 502 35,000  Level Boston Center
10:36PM 41.0856 -74.7067 22° Northeast 430 495 35,000  Level Boston Center
10:37PM 41.1931 -74.6469 23° Northeast 424 488 35,000 -180 Level Boston Center
10:38PM 41.3003 -74.6008 18° North 430 495 34,700 -660 Descending Boston Center
10:39PM 41.4097 -74.5381 23° Northeast 430 495 33,700 -960 Descending Boston Center
10:40PM 41.5319 -74.4672 23° Northeast 435 501 32,800 -960 Descending Boston Center
10:41PM 41.6456 -74.4069 22° Northeast 429 494 31,800 -900 Descending Boston Center
10:42PM 41.7569 -74.3492 21° North 448 516 31,000 -420 Descending Boston Center
10:43PM 41.8708 -74.2661 28° Northeast 441 507 31,000  Level Boston Center
10:44PM 41.9528 -74.0844 59° Northeast 447 514 31,000  Level Boston Center
10:45PM 42.0197 -73.9239 61° Northeast 460 529 31,000  Level Boston Center
10:46PM 42.0864 -73.7633 61° Northeast 473 544 31,000  Level Boston Center
10:47PM 42.1506 -73.6106 60° Northeast 501 577 31,000  Level Boston Center
10:48PM 42.2208 -73.4381 61° Northeast 496 571 31,000 -300 Level Boston Center
10:49PM 42.2847 -73.2792 61° Northeast 478 550 30,400 -1,740 Descending Boston Center
10:50PM 42.3506 -73.1142 62° Northeast 478 550 27,500 -2,820 Descending Boston Center
10:51PM 42.4139 -72.9547 62° Northeast 483 556 24,800 -2,700 Descending Boston Center
10:52PM 42.4769 -72.7975 61° Northeast 478 550 22,100 -2,640 Descending Boston Center
10:53PM 42.5378 -72.6403 62° Northeast 465 535 19,500 -2,520 Descending Boston Center
10:54PM 42.5942 -72.5050 60° Northeast 444 511 17,100 -2,580 Descending Boston Center
10:55PM 42.6525 -72.3583 62° Northeast 439 505 14,500 -2,640 Descending Boston Center
10:56PM 42.7067 -72.2142 63° Northeast 434 499 11,800 -2,040 Descending Boston Center
10:57PM 42.7561 -72.0894 62° Northeast 421 484 10,500 -960 Descending Boston Center
10:58PM 42.7994 -71.9533 67° East 370 426 9,900 -900 Descending Boston Center
10:59PM 42.7969 -71.8431 92° East 308 354 8,800 -1,320 Descending Boston Center
11:00PM 42.7919 -71.7131 93° East 308 354 7,400 -1,020 Descending Boston Center
11:01PM 42.7872 -71.6139 94° East 301 346 6,800 -1,380 Descending Boston Center
11:02PM 42.7778 -71.5011 96° East 278 320 4,700 -1,440 Descending Boston Center
11:03PM 42.7856 -71.4189 83° East 255 293 4,000 -840 Descending Boston Center
11:04PM 42.8228 -71.3786 38° Northeast 184 212 3,100 -1,200 Descending Boston Center
11:05PM 42.8603 -71.3922 345° North 130 150 1,600 -1,200 Descending Boston Center
11:06PM 42.9003 -71.4169 336° Northwest 129 148 800 -660 Descending Boston Center
11:07PM 42.9358 -71.4333 341° North 135 155 400 15,060 Descending Boston Center
11:08PM 42.9733 -71.4525 339° North 135 155 31,000 15,120 Climbing Boston Center
11:09PM 43.0092 -71.4747 336° Northwest 135 155 31,000  Level Boston Center
11:10PM 43.0467 -71.4942 339° North 135 155 31,000  Level Boston Center
11:12PM 42.9328 -71.4358 163° South  Level Estimated
11:19PM 42.9328 -71.4358 163° South  Level Estimated
11:20PM 42.9328 -71.4358 163° South  Level Estimated
11:21PM 42.9328 -71.4358 163° South  Level Estimated
11:22PM 42.9328 -71.4358 163° South  Level Estimated
11:23PM 42.9328 -71.4358 163° South  Level Estimated
11:24PM 42.9328 -71.4358 163° South  Level Estimated